createdAt,value
2018-08-30T00:01:39.655Z,95125.21
2018-08-30T00:04:08.630Z,95127.21
2018-08-30T00:06:37.681Z,95126.30
2018-08-30T00:09:07.350Z,95129.31
2018-08-30T00:11:36.641Z,95130.61
2018-08-30T00:14:06.150Z,95130.00
2018-08-30T00:16:35.130Z,95130.65
2018-08-30T00:19:04.140Z,95131.95
2018-08-30T00:21:33.464Z,95129.05
2018-08-30T00:24:02.422Z,95128.97
2018-08-30T00:26:31.430Z,95131.52
2018-08-30T00:29:00.957Z,95133.18
2018-08-30T00:31:30.033Z,95131.16
2018-08-30T00:33:58.811Z,95132.38
2018-08-30T00:36:27.838Z,95124.45
2018-08-30T00:38:57.107Z,95126.94
2018-08-30T00:41:26.318Z,95124.66
2018-08-30T00:43:55.432Z,95125.61
2018-08-30T00:46:24.309Z,95121.36
2018-08-30T00:48:53.288Z,95118.31
2018-08-30T00:51:22.924Z,95126.53
2018-08-30T00:53:51.903Z,95128.31
2018-08-30T00:56:20.899Z,95120.47
2018-08-30T00:58:50.022Z,95124.30
2018-08-30T01:01:19.095Z,95119.89
2018-08-30T01:03:48.178Z,95115.97
2018-08-30T01:06:17.810Z,95123.22
2018-08-30T01:08:46.904Z,95118.79
2018-08-30T01:11:16.071Z,95125.47
2018-08-30T01:13:45.187Z,95115.37
2018-08-30T01:16:14.250Z,95116.91
2018-08-30T01:18:43.301Z,95110.09
2018-08-30T01:21:13.011Z,95115.16
2018-08-30T01:23:42.134Z,95117.31
2018-08-30T01:26:11.032Z,95109.87
2018-08-30T01:28:40.379Z,95113.57
2018-08-30T01:31:09.518Z,95105.11
2018-08-30T01:33:38.540Z,95110.17
2018-08-30T01:36:07.786Z,95106.27
2018-08-30T01:38:36.852Z,95105.41
2018-08-30T01:41:06.164Z,95111.69
2018-08-30T01:43:35.478Z,95115.62
2018-08-30T01:46:04.371Z,95115.98
2018-08-30T01:48:33.370Z,95113.08
2018-08-30T01:51:02.933Z,95114.23
2018-08-30T01:53:31.990Z,95114.09
2018-08-30T01:56:01.092Z,95109.33
2018-08-30T01:58:30.310Z,95112.73
2018-08-30T02:00:59.273Z,95114.13
2018-08-30T02:03:28.285Z,95112.34
2018-08-30T02:05:57.398Z,95111.72
2018-08-30T02:08:26.342Z,95118.89
2018-08-30T02:10:55.367Z,95120.05
2018-08-30T02:13:25.205Z,95113.08
2018-08-30T02:15:54.343Z,95118.79
2018-08-30T02:18:23.226Z,95116.66
2018-08-30T02:20:52.738Z,95116.79
2018-08-30T02:23:21.834Z,95118.17
2018-08-30T02:25:50.739Z,95116.42
2018-08-30T02:28:20.166Z,95111.00
2018-08-30T02:30:49.156Z,95112.51
2018-08-30T02:33:18.237Z,95117.69
2018-08-30T02:35:47.660Z,95120.60
2018-08-30T02:38:16.682Z,95112.37
2018-08-30T02:40:45.700Z,95127.12
2018-08-30T02:43:14.938Z,95128.02
2018-08-30T02:45:44.008Z,95119.31
2018-08-30T02:48:13.129Z,95129.52
2018-08-30T02:50:42.136Z,95125.49
2018-08-30T02:53:11.401Z,95125.61
2018-08-30T02:55:40.434Z,95121.84
2018-08-30T02:58:09.803Z,95123.85
2018-08-30T03:00:38.442Z,95124.73
2018-08-30T03:03:07.701Z,95119.57
2018-08-30T03:05:36.968Z,95132.79
2018-08-30T03:08:06.064Z,95136.20
2018-08-30T03:10:35.162Z,95133.44
2018-08-30T03:13:04.594Z,95131.66
2018-08-30T03:15:33.637Z,95137.70
2018-08-30T03:18:03.551Z,95134.17
2018-08-30T03:20:32.660Z,95134.44
2018-08-30T03:23:01.518Z,95131.66
2018-08-30T03:25:30.395Z,95134.42
2018-08-30T03:27:59.668Z,95135.05
2018-08-30T03:30:28.920Z,95133.80
2018-08-30T03:32:57.974Z,95135.55
2018-08-30T03:35:27.147Z,95135.05
2018-08-30T03:37:56.210Z,95140.47
2018-08-30T03:40:25.094Z,95145.34
2018-08-30T03:42:54.823Z,95148.77
2018-08-30T03:45:23.912Z,95141.33
2018-08-30T03:47:52.687Z,95148.77
2018-08-30T03:50:21.929Z,95146.63
2018-08-30T03:52:50.890Z,95146.89
2018-08-30T03:55:20.147Z,95145.48
2018-08-30T03:57:49.509Z,95150.40
2018-08-30T04:00:18.487Z,95148.30
2018-08-30T04:02:47.559Z,95147.41
2018-08-30T04:12:04.367Z,95151.90
2018-08-30T04:14:33.435Z,95154.78
2018-08-30T04:17:02.571Z,95155.48
2018-08-30T04:19:31.912Z,95156.73
2018-08-30T04:22:00.983Z,95159.69
2018-08-30T04:24:29.914Z,95161.06
2018-08-30T04:26:59.248Z,95162.84
2018-08-30T04:29:28.327Z,95155.68
2018-08-30T04:31:57.423Z,95160.31
2018-08-30T04:34:26.444Z,95159.31
2018-08-30T04:36:58.170Z,95158.97
2018-08-30T04:39:27.554Z,95162.55
2018-08-30T04:41:56.778Z,95163.56
2018-08-30T04:44:25.671Z,95169.83
2018-08-30T04:46:54.918Z,95164.72
2018-08-30T04:49:24.070Z,95163.47
2018-08-30T04:51:53.272Z,95163.81
2018-08-30T04:54:22.678Z,95169.61
2018-08-30T04:56:51.530Z,95165.52
2018-08-30T04:59:20.463Z,95166.16
2018-08-30T05:01:49.931Z,95172.44
2018-08-30T05:04:19.005Z,95170.34
2018-08-30T05:06:48.526Z,95170.86
2018-08-30T05:09:17.678Z,95169.53
2018-08-30T05:11:46.869Z,95168.33
2018-08-30T05:14:16.069Z,95157.62
2018-08-30T05:16:45.715Z,95157.05
2018-08-30T05:19:14.566Z,95161.91
2018-08-30T05:23:19.609Z,95164.97
2018-08-30T05:25:48.819Z,95168.81
2018-08-30T05:28:17.767Z,95152.05
2018-08-30T05:30:47.295Z,95161.47
2018-08-30T05:33:16.206Z,95164.34
2018-08-30T05:35:45.378Z,95161.87
2018-08-30T05:38:14.341Z,95165.80
2018-08-30T05:40:44.106Z,95160.94
2018-08-30T05:43:13.308Z,95161.40
2018-08-30T05:45:42.855Z,95162.88
2018-08-30T05:48:11.802Z,95160.76
2018-08-30T05:50:40.695Z,95154.96
2018-08-30T05:53:10.238Z,95156.38
2018-08-30T05:55:39.303Z,95152.49
2018-08-30T05:58:08.466Z,95154.93
2018-08-30T06:00:38.138Z,95153.83
2018-08-30T06:03:07.218Z,95162.00
2018-08-30T06:05:36.202Z,95154.19
2018-08-30T06:08:05.667Z,95153.73
2018-08-30T06:10:36.065Z,95156.94
2018-08-30T06:13:05.356Z,95159.12
2018-08-30T06:15:34.591Z,95162.30
2018-08-30T06:18:03.643Z,95160.67
2018-08-30T06:20:32.822Z,95163.83
2018-08-30T06:23:01.862Z,95161.35
2018-08-30T06:25:31.104Z,95162.55
2018-08-30T06:28:00.534Z,95169.28
2018-08-30T06:30:29.954Z,95171.45
2018-08-30T06:32:58.979Z,95164.85
2018-08-30T06:35:28.031Z,95161.52
2018-08-30T06:37:57.094Z,95167.49
2018-08-30T06:40:25.888Z,95167.51
2018-08-30T06:42:54.692Z,95169.28
2018-08-30T06:45:23.659Z,95163.52
2018-08-30T06:47:52.754Z,95162.46
2018-08-30T06:50:21.785Z,95174.16
2018-08-30T06:52:51.164Z,95170.45
2018-08-30T06:55:20.290Z,95170.88
2018-08-30T06:57:49.279Z,95173.42
2018-08-30T07:00:18.543Z,95175.03
2018-08-30T07:02:47.467Z,95169.95
2018-08-30T07:05:16.644Z,95169.70
2018-08-30T07:07:46.236Z,95161.30
2018-08-30T07:10:15.407Z,95165.00
2018-08-30T07:12:44.370Z,95163.77
2018-08-30T07:15:13.671Z,95164.08
2018-08-30T07:17:42.782Z,95165.61
2018-08-30T07:20:11.933Z,95167.08
2018-08-30T07:22:41.298Z,95169.76
2018-08-30T07:25:10.981Z,95165.50
2018-08-30T07:27:39.764Z,95169.36
2018-08-30T07:30:12.260Z,95164.46
2018-08-30T07:32:41.760Z,95171.74
2018-08-30T07:35:10.991Z,95170.42
2018-08-30T07:37:40.023Z,95172.83
2018-08-30T07:40:09.230Z,95172.33
2018-08-30T07:42:38.384Z,95165.34
2018-08-30T07:45:07.778Z,95167.51
2018-08-30T07:47:36.919Z,95173.88
2018-08-30T07:50:06.356Z,95168.25
2018-08-30T07:52:35.687Z,95172.78
2018-08-30T07:55:05.064Z,95166.97
2018-08-30T07:57:35.007Z,95172.70
2018-08-30T08:00:04.922Z,95166.37
2018-08-30T08:02:33.907Z,95168.61
2018-08-30T08:05:03.218Z,95167.70
2018-08-30T08:07:32.671Z,95165.89
2018-08-30T08:10:01.658Z,95168.54
2018-08-30T08:12:31.251Z,95160.37
2018-08-30T08:15:00.407Z,95165.33
2018-08-30T08:17:29.380Z,95162.23
2018-08-30T08:19:58.365Z,95162.59
2018-08-30T08:22:27.991Z,95166.44
2018-08-30T08:24:57.029Z,95158.70
2018-08-30T08:27:25.967Z,95157.02
2018-08-30T08:29:55.515Z,95168.22
2018-08-30T08:32:24.482Z,95162.58
2018-08-30T08:34:53.227Z,95151.34
2018-08-30T08:37:22.494Z,95148.66
2018-08-30T08:39:51.555Z,95149.08
2018-08-30T08:42:20.522Z,95144.27
2018-08-30T08:44:49.774Z,95144.49
2018-08-30T08:47:18.974Z,95136.19
2018-08-30T08:49:48.143Z,95132.63
2018-08-30T08:52:17.695Z,95137.00
2018-08-30T08:54:46.879Z,95130.48
2018-08-30T08:57:16.177Z,95134.03
2018-08-30T08:59:45.699Z,95125.55
2018-08-30T09:02:14.781Z,95122.63
2018-08-30T09:04:43.775Z,95124.31
2018-08-30T09:07:13.776Z,95126.62
2018-08-30T09:09:42.924Z,95119.38
2018-08-30T09:12:12.054Z,95124.20
2018-08-30T09:14:41.639Z,95125.89
2018-08-30T09:17:10.874Z,95119.11
2018-08-30T09:19:40.032Z,95116.61
2018-08-30T09:22:09.319Z,95120.97
2018-08-30T09:24:38.366Z,95126.38
2018-08-30T09:27:07.459Z,95123.14
2018-08-30T09:29:37.067Z,95130.18
2018-08-30T09:32:06.508Z,95128.16
2018-08-30T09:34:35.552Z,95126.95
2018-08-30T09:37:05.070Z,95123.03
2018-08-30T09:39:34.005Z,95116.53
2018-08-30T09:42:03.031Z,95119.34
2018-08-30T09:44:32.193Z,95104.84
2018-08-30T09:47:01.267Z,95101.59
2018-08-30T09:49:30.390Z,95104.47
2018-08-30T09:51:59.750Z,95093.15
2018-08-30T09:54:28.674Z,95091.33
2018-08-30T09:56:57.998Z,95098.45
2018-08-30T09:59:27.549Z,95095.91
2018-08-30T10:02:01.853Z,95096.60
2018-08-30T10:04:31.479Z,95092.84
2018-08-30T10:07:00.721Z,95091.70
2018-08-30T10:09:30.028Z,95090.63
2018-08-30T10:11:59.655Z,95088.70
2018-08-30T10:14:28.929Z,95093.98
2018-08-30T10:16:58.102Z,95090.56
2018-08-30T10:19:27.155Z,95095.60
2018-08-30T10:21:56.271Z,95089.24
2018-08-30T10:24:25.212Z,95092.87
2018-08-30T10:26:54.407Z,95084.72
2018-08-30T10:29:23.701Z,95087.09
2018-08-30T10:31:52.798Z,95077.14
2018-08-30T10:34:22.011Z,95075.91
2018-08-30T10:36:51.102Z,95066.62
2018-08-30T10:39:20.708Z,95065.27
2018-08-30T10:41:50.639Z,95063.64
2018-08-30T10:44:19.617Z,95065.15
2018-08-30T10:46:48.613Z,95060.76
2018-08-30T10:49:17.923Z,95061.64
2018-08-30T10:51:47.138Z,95058.30
2018-08-30T10:54:16.198Z,95060.73
2018-08-30T10:56:45.774Z,95062.65
2018-08-30T10:59:14.941Z,95058.62
2018-08-30T11:01:44.022Z,95057.80
2018-08-30T11:04:13.209Z,95054.55
2018-08-30T11:06:42.492Z,95058.46
2018-08-30T11:09:11.390Z,95049.38
2018-08-30T11:11:40.364Z,95048.70
2018-08-30T11:14:09.321Z,95048.20
2018-08-30T11:16:38.623Z,95043.20
2018-08-30T11:19:07.730Z,95042.19
2018-08-30T11:21:36.990Z,95041.73
2018-08-30T11:24:06.132Z,95035.63
2018-08-30T11:26:35.874Z,95033.77
2018-08-30T11:29:04.895Z,95029.66
2018-08-30T11:31:33.887Z,95027.28
2018-08-30T11:34:03.224Z,95027.28
2018-08-30T11:36:32.195Z,95033.15
2018-08-30T11:39:01.226Z,95031.02
2018-08-30T11:41:31.057Z,95023.77
2018-08-30T11:43:59.998Z,95025.27
2018-08-30T11:46:29.187Z,95028.16
2018-08-30T11:48:58.407Z,95024.47
2018-08-30T11:51:27.695Z,95022.63
2018-08-30T11:53:56.687Z,95022.63
2018-08-30T11:56:26.035Z,95027.84
2018-08-30T11:58:55.084Z,95024.53
2018-08-30T12:01:23.993Z,95026.47
2018-08-30T12:03:53.431Z,95020.05
2018-08-30T12:06:22.700Z,95012.62
2018-08-30T12:08:51.777Z,95006.41
2018-08-30T12:11:21.230Z,95011.31
2018-08-30T12:13:50.267Z,95008.91
2018-08-30T12:16:19.289Z,95009.36
2018-08-30T12:18:48.467Z,95008.91
2018-08-30T12:21:17.643Z,95002.19
2018-08-30T12:23:46.618Z,95003.04
2018-08-30T12:26:16.112Z,95009.49
2018-08-30T12:28:45.471Z,95000.92
2018-08-30T12:31:14.448Z,94996.54
2018-08-30T12:33:44.193Z,95002.67
2018-08-30T12:36:13.201Z,94984.36
2018-08-30T12:38:42.390Z,94986.60
2018-08-30T12:41:12.043Z,94985.32
2018-08-30T12:43:41.345Z,94983.05
2018-08-30T12:46:10.324Z,94975.03
2018-08-30T12:48:39.761Z,94989.77
2018-08-30T12:51:09.034Z,94981.27
2018-08-30T12:53:38.069Z,94980.36
2018-08-30T12:56:07.737Z,94977.42
2018-08-30T12:58:36.743Z,94983.44
2018-08-30T13:01:06.136Z,94984.47
2018-08-30T13:03:35.483Z,94981.84
2018-08-30T13:06:04.800Z,94987.99
2018-08-30T13:08:33.917Z,94984.41
2018-08-30T13:11:02.994Z,94968.72
2018-08-30T13:13:32.019Z,94970.17
2018-08-30T13:16:00.994Z,94975.28
2018-08-30T13:18:30.546Z,94969.55
2018-08-30T13:21:00.059Z,94969.52
2018-08-30T13:23:29.216Z,94968.80
2018-08-30T13:25:58.260Z,94966.41
2018-08-30T13:28:27.684Z,94965.55
2018-08-30T13:30:56.935Z,94967.74
2018-08-30T13:33:26.398Z,94966.77
2018-08-30T13:35:55.513Z,94970.33
2018-08-30T13:38:24.638Z,94966.47
2018-08-30T13:40:54.263Z,94960.63
2018-08-30T13:43:23.440Z,94955.97
2018-08-30T13:45:52.378Z,94959.80
2018-08-30T13:48:21.912Z,94949.44
2018-08-30T13:50:51.312Z,94957.23
2018-08-30T13:53:20.352Z,94956.88
2018-08-30T13:55:49.839Z,94957.44
2018-08-30T13:58:19.122Z,94952.47
2018-08-30T14:00:48.345Z,94954.85
2018-08-30T14:03:17.866Z,94948.90
2018-08-30T14:05:47.128Z,94953.95
2018-08-30T14:08:16.534Z,94954.34
2018-08-30T14:10:45.711Z,94953.77
2018-08-30T14:13:14.985Z,94957.62
2018-08-30T14:15:43.735Z,94950.09
2018-08-30T14:18:12.816Z,94946.07
2018-08-30T14:20:41.606Z,94957.86
2018-08-30T14:23:10.826Z,94946.30
2018-08-30T14:25:40.066Z,94951.94
2018-08-30T14:28:09.275Z,94949.66
2018-08-30T14:30:38.110Z,94949.33
2018-08-30T14:33:07.542Z,94948.66
2018-08-30T14:35:36.598Z,94948.59
2018-08-30T14:38:05.769Z,94946.70
2018-08-30T14:40:35.641Z,94949.52
2018-08-30T14:43:04.819Z,94948.57
2018-08-30T14:45:33.871Z,94941.50
2018-08-30T14:48:03.300Z,94943.42
2018-08-30T14:50:32.148Z,94951.12
2018-08-30T14:53:01.415Z,94944.76
2018-08-30T14:55:30.519Z,94950.21
2018-08-30T14:57:59.488Z,94952.84
2018-08-30T15:00:28.675Z,94953.45
2018-08-30T15:02:57.943Z,94946.30
2018-08-30T15:05:27.718Z,94950.23
2018-08-30T15:07:56.608Z,94946.69
2018-08-30T15:10:26.019Z,94952.11
2018-08-30T15:12:55.066Z,94953.08
2018-08-30T15:15:24.095Z,94952.84
2018-08-30T15:17:53.355Z,94956.24
2018-08-30T15:20:22.294Z,94958.61
2018-08-30T15:22:51.513Z,94956.50
2018-08-30T15:25:21.036Z,94952.31
2018-08-30T15:27:49.967Z,94956.45
2018-08-30T15:30:19.059Z,94959.08
2018-08-30T15:32:48.037Z,94956.72
2018-08-30T15:35:17.262Z,94951.72
2018-08-30T15:37:46.151Z,94952.20
2018-08-30T15:40:15.474Z,94951.77
2018-08-30T15:42:45.146Z,94951.02
2018-08-30T15:45:14.746Z,94953.02
2018-08-30T15:47:43.919Z,94946.47
2018-08-30T15:50:13.025Z,94954.00
2018-08-30T15:52:42.150Z,94949.78
2018-08-30T15:55:11.388Z,94957.61
2018-08-30T15:57:40.691Z,94957.58
2018-08-30T16:00:09.975Z,94957.66
2018-08-30T16:02:39.322Z,94957.75
2018-08-30T16:05:08.388Z,94952.69
2018-08-30T16:07:37.472Z,94948.41
2018-08-30T16:10:07.067Z,94969.64
2018-08-30T16:12:36.092Z,94963.08
2018-08-30T16:15:05.241Z,94959.83
2018-08-30T16:17:34.593Z,94959.70
2018-08-30T16:20:03.783Z,94972.41
2018-08-30T16:22:43.866Z,94956.80
2018-08-30T16:25:13.039Z,94959.17
2018-08-30T16:27:42.235Z,94962.75
2018-08-30T16:30:11.570Z,94969.36
2018-08-30T16:32:40.834Z,94977.83
2018-08-30T16:35:09.623Z,94972.25
2018-08-30T16:37:39.183Z,94979.08
2018-08-30T16:40:08.347Z,94975.09
2018-08-30T16:42:37.498Z,94979.53
2018-08-30T16:45:06.799Z,94988.68
2018-08-30T16:47:35.808Z,94985.91
2018-08-30T16:50:04.940Z,94984.89
2018-08-30T16:52:34.859Z,94990.12
2018-08-30T16:55:03.836Z,94995.66
2018-08-30T16:57:32.779Z,94993.33
2018-08-30T17:00:02.115Z,95003.20
2018-08-30T17:02:31.445Z,95002.48
2018-08-30T17:05:00.430Z,94995.66
2018-08-30T17:07:29.619Z,94999.39
2018-08-30T17:09:58.814Z,95003.72
2018-08-30T17:12:27.879Z,95009.23
2018-08-30T17:14:57.247Z,95010.38
2018-08-30T17:17:26.997Z,95011.61
2018-08-30T17:19:55.807Z,95015.25
2018-08-30T17:22:25.450Z,95021.75
2018-08-30T17:24:54.672Z,95016.41
2018-08-30T17:27:23.631Z,95027.66
2018-08-30T17:29:52.755Z,95030.48
2018-08-30T17:32:21.912Z,95030.20
2018-08-30T17:34:50.932Z,95028.98
2018-08-30T17:37:20.347Z,95032.92
2018-08-30T17:39:49.373Z,95045.19
2018-08-30T17:42:18.511Z,95041.08
2018-08-30T17:44:47.834Z,95038.74
2018-08-30T17:47:16.881Z,95045.36
2018-08-30T17:49:46.248Z,95045.66
2018-08-30T17:52:15.543Z,95053.31
2018-08-30T17:54:44.689Z,95053.22
2018-08-30T17:57:13.834Z,95054.16
2018-08-30T17:59:42.965Z,95058.00
2018-08-30T18:02:12.426Z,95062.00
2018-08-30T18:04:41.212Z,95066.41
2018-08-30T18:07:10.203Z,95072.57
2018-08-30T18:09:39.783Z,95079.03
2018-08-30T18:12:08.892Z,95084.16
2018-08-30T18:14:38.129Z,95084.13
2018-08-30T18:17:08.081Z,95091.31
2018-08-30T18:19:37.230Z,95089.83
2018-08-30T18:22:07.022Z,95094.95
2018-08-30T18:24:35.915Z,95092.89
2018-08-30T18:27:04.957Z,95090.73
2018-08-30T18:29:33.925Z,95090.73
2018-08-30T18:32:03.091Z,95091.20
2018-08-30T18:34:32.184Z,95092.45
2018-08-30T18:37:01.505Z,95090.00
2018-08-30T18:39:30.535Z,95088.70
2018-08-30T18:41:59.920Z,95086.69
2018-08-30T18:44:29.130Z,95094.79
2018-08-30T18:46:58.104Z,95097.38
2018-08-30T18:49:27.211Z,95090.54
2018-08-30T18:51:57.606Z,95092.59
2018-08-30T18:54:27.142Z,95087.13
2018-08-30T18:56:56.239Z,95093.34
2018-08-30T18:59:25.668Z,95098.05
2018-08-30T19:01:54.868Z,95091.29
2018-08-30T19:04:24.312Z,95096.86
2018-08-30T19:06:53.648Z,95097.26
2018-08-30T19:09:22.422Z,95092.11
2018-08-30T19:11:51.534Z,95097.89
2018-08-30T19:14:20.958Z,95087.56
2018-08-30T19:16:54.906Z,95092.23
2018-08-30T19:19:25.956Z,95096.68
2018-08-30T19:21:55.006Z,95092.17
2018-08-30T19:24:29.276Z,95100.05
2018-08-30T19:26:58.271Z,95096.98
2018-08-30T19:29:27.183Z,95101.70
2018-08-30T19:31:56.524Z,95098.77
2018-08-30T19:34:25.708Z,95100.75
2018-08-30T19:36:54.847Z,95097.66
2018-08-30T19:39:24.111Z,95096.10
2018-08-30T19:41:53.043Z,95095.88
2018-08-30T19:44:21.979Z,95089.11
2018-08-30T19:46:51.472Z,95090.82
2018-08-30T19:49:20.307Z,95089.11
2018-08-30T19:51:49.370Z,95092.14
2018-08-30T19:54:18.462Z,95094.72
2018-08-30T19:56:47.371Z,95097.75
2018-08-30T19:59:16.627Z,95100.89
2018-08-30T20:01:45.913Z,95100.05
2018-08-30T20:04:15.027Z,95107.50
2018-08-30T20:06:44.036Z,95106.10
2018-08-30T20:09:13.460Z,95109.13
2018-08-30T20:11:42.455Z,95115.52
2018-08-30T20:14:11.451Z,95108.73
2018-08-30T20:16:40.662Z,95106.89
2018-08-30T20:19:09.623Z,95108.95
2018-08-30T20:21:38.527Z,95104.98
2018-08-30T20:24:08.070Z,95101.63
2018-08-30T20:26:37.263Z,95108.66
2018-08-30T20:29:06.555Z,95114.36
2018-08-30T20:31:35.552Z,95116.29
2018-08-30T20:34:04.694Z,95116.73
2018-08-30T20:36:33.799Z,95119.76
2018-08-30T20:39:03.168Z,95114.59
2018-08-30T20:41:32.346Z,95116.33
2018-08-30T20:44:01.318Z,95114.17
2018-08-30T20:46:30.686Z,95122.67
2018-08-30T20:48:59.755Z,95126.14
2018-08-30T20:51:28.898Z,95136.23
2018-08-30T20:53:58.234Z,95128.92
2018-08-30T20:56:27.421Z,95137.00
2018-08-30T20:58:56.629Z,95142.89
2018-08-30T21:01:25.842Z,95138.28
2018-08-30T21:03:54.927Z,95133.66
2018-08-30T21:06:24.111Z,95145.05
2018-08-30T21:08:53.638Z,95142.46
2018-08-30T21:11:23.058Z,95136.95
2018-08-30T21:13:52.018Z,95147.49
2018-08-30T21:16:21.292Z,95140.38
2018-08-30T21:18:50.431Z,95136.56
2018-08-30T21:21:19.308Z,95145.23
2018-08-30T21:23:48.345Z,95143.39
2018-08-30T21:26:17.229Z,95145.20
2018-08-30T21:28:46.505Z,95147.47
2018-08-30T21:31:15.742Z,95151.95
2018-08-30T21:33:44.803Z,95149.12
2018-08-30T21:36:13.994Z,95144.20
2018-08-30T21:38:44.922Z,95144.51
2018-08-30T21:41:17.526Z,95145.77
2018-08-30T21:43:46.806Z,95150.02
2018-08-30T21:46:15.883Z,95154.58
2018-08-30T21:48:44.925Z,95149.09
2018-08-30T21:51:14.951Z,95157.59
2018-08-30T21:53:43.910Z,95159.50
2018-08-30T21:56:12.819Z,95156.98
2018-08-30T21:58:42.252Z,95159.63
2018-08-30T22:01:11.306Z,95161.14
2018-08-30T22:03:42.720Z,95162.17
2018-08-30T22:06:11.882Z,95167.42
2018-08-30T22:08:41.424Z,95167.61
2018-08-30T22:11:10.494Z,95164.72
2018-08-30T22:13:39.981Z,95166.05
2018-08-30T22:16:09.073Z,95169.94
2018-08-30T22:18:38.558Z,95169.76
2018-08-30T22:21:08.318Z,95172.34
2018-08-30T22:23:37.217Z,95180.25
2018-08-30T22:26:06.251Z,95171.59
2018-08-30T22:28:35.202Z,95172.41
2018-08-30T22:31:04.309Z,95180.91
2018-08-30T22:33:34.714Z,95180.23
2018-08-30T22:36:03.736Z,95184.37
2018-08-30T22:38:32.694Z,95178.50
2018-08-30T22:41:01.670Z,95184.24
2018-08-30T22:43:30.592Z,95176.47
2018-08-30T22:45:59.578Z,95176.77
2018-08-30T22:48:28.614Z,95176.27
2018-08-30T22:50:58.120Z,95177.78
2018-08-30T22:53:26.870Z,95176.20
2018-08-30T22:55:55.839Z,95177.31
2018-08-30T22:58:24.902Z,95174.38
2018-08-30T23:00:54.242Z,95171.84
2018-08-30T23:03:23.140Z,95177.89
2018-08-30T23:05:52.514Z,95176.36
2018-08-30T23:08:21.746Z,95176.30
2018-08-30T23:10:50.935Z,95170.41
2018-08-30T23:13:20.274Z,95178.07
2018-08-30T23:15:49.450Z,95170.86
2018-08-30T23:18:18.452Z,95169.88
2018-08-30T23:20:47.520Z,95166.64
2018-08-30T23:23:16.502Z,95169.84
2018-08-30T23:25:45.527Z,95165.34
2018-08-30T23:28:15.134Z,95163.84
2018-08-30T23:30:45.358Z,95174.10
2018-08-30T23:33:14.166Z,95167.07
2018-08-30T23:35:43.582Z,95164.77
2018-08-30T23:38:13.119Z,95167.19
2018-08-30T23:40:41.957Z,95173.16
2018-08-30T23:43:11.172Z,95168.38
2018-08-30T23:45:40.428Z,95174.10
2018-08-30T23:48:09.622Z,95174.02
2018-08-30T23:50:38.786Z,95170.70
2018-08-30T23:53:07.641Z,95172.23
2018-08-30T23:55:36.634Z,95172.38
2018-08-30T23:58:16.615Z,95177.36
